Time;durP1;ratioP1;P1;durP2;ratioP2;P2;SDS_P1;SDS_P2;PMS_P1;PMS_P2;Temp;Humidity;BMP_temperature;BMP_pressure;BME280_temperature;BME280_humidity;BME280_pressure;Samples;Min_cycle;Max_cycle;Signal;HPM_P1;HPM_P2
2021/04/26 00:01:10;;;;;;;15.57;6.40;;;16.60;95.90;;;;;;5012054;28;20441;-72
2021/04/26 00:03:36;;;;;;;17.73;6.22;;;16.70;95.80;;;;;;5011918;28;20100;-72
2021/04/26 00:06:02;;;;;;;16.60;6.63;;;16.70;95.50;;;;;;5012000;28;20105;-72
2021/04/26 00:08:27;;;;;;;13.00;6.35;;;16.80;95.40;;;;;;5012149;28;20017;-73
2021/04/26 00:10:53;;;;;;;12.18;6.65;;;16.80;95.40;;;;;;5012037;28;20469;-72
2021/04/26 00:13:19;;;;;;;14.50;6.20;;;16.80;95.40;;;;;;5011393;28;20093;-72
2021/04/26 00:15:45;;;;;;;18.00;7.40;;;16.80;95.40;;;;;;5010253;28;20026;-72
2021/04/26 00:18:12;;;;;;;12.88;5.97;;;16.80;95.40;;;;;;5011463;28;20526;-73
2021/04/26 00:20:39;;;;;;;12.82;6.55;;;16.80;95.40;;;;;;5011318;28;20058;-72
2021/04/26 00:23:05;;;;;;;14.10;6.60;;;16.80;95.40;;;;;;5011369;28;20068;-72
2021/04/26 00:25:31;;;;;;;21.77;6.97;;;16.80;95.30;;;;;;5010608;28;20034;-72
2021/04/26 00:27:58;;;;;;;9.90;6.35;;;16.80;95.40;;;;;;5011835;28;20433;-72
2021/04/26 00:30:24;;;;;;;12.80;6.35;;;16.80;95.40;;;;;;5010976;28;20046;-72
2021/04/26 00:32:51;;;;;;;17.45;6.45;;;16.80;95.50;;;;;;5011423;28;20030;-73
2021/04/26 00:35:17;;;;;;;18.50;7.07;;;16.70;95.50;;;;;;5011819;28;20056;-73
2021/04/26 00:37:45;;;;;;;13.15;6.32;;;16.70;95.70;;;;;;5011701;28;20364;-72
2021/04/26 00:40:11;;;;;;;13.18;7.03;;;16.70;95.70;;;;;;5011932;28;20025;-72
2021/04/26 00:42:38;;;;;;;10.85;7.03;;;16.70;95.70;;;;;;5011662;28;20049;-73
2021/04/26 00:45:09;;;;;;;17.50;7.07;;;16.70;95.80;;;;;;5010869;28;20018;-72
2021/04/26 00:47:36;;;;;;;24.20;6.95;;;16.60;95.80;;;;;;5011484;28;20041;-72
2021/04/26 00:50:05;;;;;;;19.02;6.60;;;16.60;95.80;;;;;;5011060;28;20071;-72
2021/04/26 00:52:30;;;;;;;22.33;7.95;;;16.50;95.90;;;;;;5009933;28;20029;-72
2021/04/26 00:54:56;;;;;;;11.15;6.90;;;16.50;96.00;;;;;;5011355;28;20414;-72
2021/04/26 00:57:22;;;;;;;13.30;7.43;;;16.50;95.90;;;;;;5011465;28;20477;-72
2021/04/26 00:59:47;;;;;;;16.65;7.88;;;16.40;96.00;;;;;;5011528;28;20402;-72
2021/04/26 01:02:13;;;;;;;24.90;8.10;;;16.40;95.80;;;;;;5011161;28;20497;-72
2021/04/26 01:04:39;;;;;;;17.60;7.53;;;16.40;95.90;;;;;;5011363;28;20083;-72
2021/04/26 01:07:05;;;;;;;13.95;7.90;;;16.30;96.00;;;;;;5011168;28;20018;-72
2021/04/26 01:09:31;;;;;;;23.55;7.40;;;16.30;96.00;;;;;;5011113;28;20022;-72
2021/04/26 01:12:10;;;;;;;16.23;8.00;;;16.30;96.00;;;;;;5010470;28;20037;-72
2021/04/26 01:14:42;;;;;;;22.60;9.45;;;16.20;96.00;;;;;;5010442;28;20041;-72
2021/04/26 01:17:18;;;;;;;13.02;8.85;;;16.20;96.00;;;;;;5013872;28;20203;-72
2021/04/26 01:19:52;;;;;;;16.08;8.35;;;16.20;96.00;;;;;;5014774;28;20100;-72
2021/04/26 01:22:42;;;;;;;17.45;7.78;;;16.10;96.00;;;;;;5014431;28;20038;-72
2021/04/26 01:25:15;;;;;;;15.98;8.18;;;16.10;96.00;;;;;;5014790;28;20501;-72
2021/04/26 01:27:46;;;;;;;19.42;8.70;;;16.00;96.10;;;;;;5013858;28;20060;-71
2021/04/26 01:30:15;;;;;;;18.10;7.70;;;16.00;95.90;;;;;;5014465;28;20030;-72
2021/04/26 01:32:55;;;;;;;27.42;9.70;;;16.00;95.90;;;;;;5014015;28;20022;-72
2021/04/26 01:35:22;;;;;;;16.58;8.93;;;15.90;96.30;;;;;;5014585;28;20026;-73
2021/04/26 01:37:51;;;;;;;11.95;8.15;;;15.90;95.90;;;;;;5014446;28;20026;-72
2021/04/26 01:40:20;;;;;;;21.58;8.23;;;15.80;95.80;;;;;;5014693;28;20042;-72
2021/04/26 01:42:50;;;;;;;14.50;8.43;;;15.80;95.90;;;;;;5013941;28;20129;-72
2021/04/26 01:45:17;;;;;;;12.80;8.68;;;15.90;95.90;;;;;;5014404;28;20073;-73
2021/04/26 01:47:45;;;;;;;16.42;7.95;;;15.80;95.80;;;;;;5014369;28;20029;-72
2021/04/26 01:50:13;;;;;;;19.25;8.68;;;15.80;95.60;;;;;;5013715;28;20026;-72
2021/04/26 01:52:39;;;;;;;27.17;9.38;;;15.70;95.60;;;;;;5013580;28;20419;-72
2021/04/26 01:55:08;;;;;;;19.08;8.95;;;15.70;95.80;;;;;;5013776;28;20157;-73
2021/04/26 01:57:35;;;;;;;23.67;9.15;;;15.70;95.60;;;;;;5014334;28;20018;-73
2021/04/26 02:00:15;;;;;;;17.52;8.98;;;15.70;95.70;;;;;;5014078;28;20045;-74
2021/04/26 02:02:43;;;;;;;17.23;8.75;;;15.60;95.70;;;;;;5012618;28;20022;-73
2021/04/26 02:05:10;;;;;;;15.68;8.93;;;15.70;95.60;;;;;;5012916;28;20076;-74
2021/04/26 02:07:42;;;;;;;20.08;9.23;;;15.60;95.70;;;;;;5013058;28;20022;-72
2021/04/26 02:10:10;;;;;;;14.45;9.05;;;15.50;95.60;;;;;;5013326;28;20481;-73
2021/04/26 02:12:38;;;;;;;16.83;9.20;;;15.50;95.60;;;;;;5012545;28;20049;-73
2021/04/26 02:15:07;;;;;;;18.33;9.10;;;15.40;95.60;;;;;;5006016;28;20037;-74
2021/04/26 02:17:33;;;;;;;15.38;8.85;;;15.30;95.50;;;;;;5013635;28;20061;-72
2021/04/26 02:19:59;;;;;;;24.30;10.07;;;15.30;95.40;;;;;;5014095;28;20506;-73
2021/04/26 02:22:25;;;;;;;24.38;9.98;;;15.30;95.10;;;;;;5014444;28;20026;-73
2021/04/26 02:24:50;;;;;;;47.63;9.88;;;15.30;95.00;;;;;;5014197;28;20025;-73
2021/04/26 02:27:16;;;;;;;19.55;9.25;;;15.20;94.80;;;;;;5013700;28;20026;-73
2021/04/26 02:29:42;;;;;;;25.17;9.48;;;15.20;94.80;;;;;;5014070;28;20045;-72
2021/04/26 02:32:13;;;;;;;25.58;9.30;;;15.20;94.60;;;;;;5014064;28;20034;-74
2021/04/26 02:34:44;;;;;;;17.53;9.10;;;15.10;94.60;;;;;;5012983;28;20037;-72
2021/04/26 02:37:38;;;;;;;20.38;9.25;;;15.00;94.50;;;;;;5013699;28;20554;-72
2021/04/26 02:40:07;;;;;;;18.42;9.38;;;15.00;94.40;;;;;;5009770;28;20034;-72
2021/04/26 02:42:37;;;;;;;23.27;7.95;;;15.00;94.30;;;;;;5013403;28;20152;-72
2021/04/26 02:45:04;;;;;;;19.27;8.75;;;14.90;94.10;;;;;;5013270;28;20025;-71
2021/04/26 02:47:31;;;;;;;16.60;8.65;;;14.90;93.90;;;;;;5013350;28;20501;-72
2021/04/26 02:50:03;;;;;;;20.30;8.75;;;14.90;93.80;;;;;;5013801;28;20030;-73
2021/04/26 02:52:30;;;;;;;12.27;7.60;;;14.90;94.00;;;;;;5013652;28;20022;-73
2021/04/26 02:54:56;;;;;;;12.50;7.72;;;14.80;93.90;;;;;;5013155;28;20034;-71
2021/04/26 02:57:22;;;;;;;16.65;8.65;;;14.80;93.90;;;;;;5013220;28;20258;-72
2021/04/26 02:59:49;;;;;;;21.38;8.60;;;14.70;93.80;;;;;;5013168;28;20022;-73
2021/04/26 03:02:18;;;;;;;23.05;9.10;;;14.70;93.80;;;;;;5012787;28;20080;-74
2021/04/26 03:04:44;;;;;;;20.48;8.57;;;14.70;93.60;;;;;;5013019;28;20045;-72
2021/04/26 03:07:11;;;;;;;17.58;8.50;;;14.60;93.80;;;;;;5013068;28;20029;-72
2021/04/26 03:09:37;;;;;;;14.50;7.72;;;14.60;93.50;;;;;;5013556;28;20201;-72
2021/04/26 03:12:03;;;;;;;16.10;8.25;;;14.50;93.50;;;;;;5013301;28;20347;-71
2021/04/26 03:14:30;;;;;;;16.33;7.93;;;14.50;93.50;;;;;;5012602;28;20028;-72
2021/04/26 03:16:57;;;;;;;16.27;8.35;;;14.50;93.50;;;;;;5012093;28;20038;-72
2021/04/26 03:19:23;;;;;;;17.25;8.80;;;14.40;93.40;;;;;;5012970;28;20022;-73
2021/04/26 03:21:50;;;;;;;26.40;8.68;;;14.30;93.40;;;;;;5011194;28;20116;-73
2021/04/26 03:24:17;;;;;;;37.72;9.70;;;14.30;93.40;;;;;;5011422;28;20045;-74
2021/04/26 03:26:49;;;;;;;14.50;8.13;;;14.30;93.40;;;;;;5011483;28;20040;-72
2021/04/26 03:29:19;;;;;;;;;;;14.20;93.30;;;;;;5011143;28;20028;-73
2021/04/26 03:31:46;;;;;;;14.60;7.93;;;14.20;93.20;;;;;;5011331;28;19905;-72
2021/04/26 03:34:13;;;;;;;15.13;7.93;;;14.10;93.30;;;;;;5011084;28;20069;-73
2021/04/26 03:36:40;;;;;;;21.23;7.95;;;14.10;93.20;;;;;;5012353;28;20022;-72
2021/04/26 03:39:09;;;;;;;12.07;7.53;;;14.10;93.20;;;;;;5011967;28;20018;-74
2021/04/26 03:41:35;;;;;;;14.43;6.95;;;14.00;93.00;;;;;;5011885;28;20030;-74
2021/04/26 03:44:02;;;;;;;18.52;7.55;;;14.00;92.80;;;;;;5012688;28;20123;-71
2021/04/26 03:46:28;;;;;;;19.35;7.72;;;13.90;92.60;;;;;;5012257;28;20029;-73
2021/04/26 03:48:54;;;;;;;26.10;7.57;;;13.90;92.20;;;;;;5011750;28;20381;-73
2021/04/26 03:51:19;;;;;;;11.82;6.50;;;13.80;92.30;;;;;;5010740;28;20025;-73
2021/04/26 03:53:45;;;;;;;14.52;7.32;;;13.80;92.10;;;;;;5010960;28;20102;-71
2021/04/26 03:56:11;;;;;;;18.70;7.43;;;13.80;91.90;;;;;;5011429;28;20402;-72
2021/04/26 03:58:36;;;;;;;10.75;7.05;;;13.80;91.80;;;;;;5011957;28;20026;-71
2021/04/26 04:01:02;;;;;;;12.13;7.43;;;13.80;91.60;;;;;;5011966;28;20482;-73
2021/04/26 04:03:28;;;;;;;13.13;6.88;;;13.70;91.30;;;;;;5011957;28;20057;-72
2021/04/26 04:05:53;;;;;;;12.40;7.35;;;13.70;91.10;;;;;;4994324;28;20073;-73
2021/04/26 04:08:21;;;;;;;12.23;6.78;;;13.70;91.00;;;;;;5012389;28;20098;-74
2021/04/26 04:10:47;;;;;;;15.85;7.03;;;13.70;90.90;;;;;;5012123;28;20037;-74
2021/04/26 04:13:12;;;;;;;16.15;7.05;;;13.70;90.80;;;;;;5012466;28;20109;-73
2021/04/26 04:15:38;;;;;;;10.50;6.25;;;13.70;90.70;;;;;;5012184;28;20105;-72
2021/04/26 04:18:04;;;;;;;17.10;6.38;;;13.60;90.30;;;;;;5012267;28;20076;-72
2021/04/26 04:20:30;;;;;;;17.35;6.72;;;13.60;90.20;;;;;;5011934;28;20056;-73
2021/04/26 04:22:55;;;;;;;16.42;6.25;;;13.60;90.10;;;;;;5012190;28;20029;-73
2021/04/26 04:25:21;;;;;;;10.15;5.55;;;13.60;89.90;;;;;;5012111;28;20065;-74
2021/04/26 04:27:47;;;;;;;16.33;6.68;;;13.50;89.60;;;;;;5012030;28;20034;-72
2021/04/26 04:30:14;;;;;;;17.08;7.22;;;13.50;89.40;;;;;;5012010;28;20018;-74
2021/04/26 04:32:40;;;;;;;13.15;5.25;;;13.50;89.90;;;;;;5011729;28;20117;-71
2021/04/26 04:35:06;;;;;;;17.80;6.50;;;13.40;89.60;;;;;;5012153;28;20481;-71
2021/04/26 04:37:32;;;;;;;12.73;6.57;;;13.40;89.90;;;;;;5011633;28;20038;-71
2021/04/26 04:39:58;;;;;;;13.27;6.00;;;13.40;89.80;;;;;;5012240;28;20028;-72
2021/04/26 04:42:24;;;;;;;20.30;6.38;;;13.40;89.60;;;;;;5009512;28;20053;-73
2021/04/26 04:44:49;;;;;;;26.80;7.05;;;13.40;89.50;;;;;;5010218;28;20026;-72
2021/04/26 04:47:15;;;;;;;12.77;6.53;;;13.40;89.00;;;;;;5011564;28;20050;-71
2021/04/26 04:49:41;;;;;;;11.20;5.60;;;13.50;88.50;;;;;;5012726;28;20172;-72
2021/04/26 04:52:07;;;;;;;15.65;5.82;;;13.50;88.20;;;;;;5015772;28;20030;-73
2021/04/26 04:54:32;;;;;;;9.32;5.70;;;13.60;87.70;;;;;;5014938;28;20064;-73
2021/04/26 04:56:58;;;;;;;18.55;5.78;;;13.90;87.00;;;;;;5014841;28;20109;-73
2021/04/26 04:59:24;;;;;;;25.58;5.82;;;14.20;86.60;;;;;;5014556;28;20096;-74
2021/04/26 05:01:49;;;;;;;15.10;6.20;;;14.40;85.60;;;;;;5015127;28;20080;-72
2021/04/26 05:04:15;;;;;;;11.23;5.60;;;14.60;84.80;;;;;;5015064;28;20100;-72
2021/04/26 05:06:41;;;;;;;13.30;5.15;;;14.90;84.10;;;;;;5015467;28;20034;-73
2021/04/26 05:09:07;;;;;;;18.80;5.72;;;15.10;83.80;;;;;;5015112;28;20053;-72
2021/04/26 05:11:33;;;;;;;18.30;5.80;;;15.20;83.00;;;;;;5015102;28;20048;-73
2021/04/26 05:13:59;;;;;;;6.57;4.85;;;15.30;83.20;;;;;;5015093;28;20474;-73
2021/04/26 05:16:27;;;;;;;12.32;5.63;;;15.40;82.30;;;;;;5015582;28;20029;-71
2021/04/26 05:18:56;;;;;;;19.15;5.30;;;15.60;81.90;;;;;;5014283;28;20539;-72
2021/04/26 05:21:22;;;;;;;16.15;4.80;;;15.90;81.70;;;;;;5014617;28;20438;-73
2021/04/26 05:23:47;;;;;;;11.32;5.95;;;16.00;80.90;;;;;;5014105;28;20034;-72
2021/04/26 05:26:13;;;;;;;15.23;5.30;;;16.20;80.40;;;;;;5012054;28;20060;-72
2021/04/26 05:28:39;;;;;;;12.43;5.45;;;16.30;79.90;;;;;;4996087;28;20030;-72
2021/04/26 05:31:04;;;;;;;25.42;4.90;;;16.20;80.00;;;;;;5014539;28;20041;-71
2021/04/26 05:33:30;;;;;;;11.52;5.00;;;16.30;80.00;;;;;;5014692;28;20021;-74
2021/04/26 05:35:56;;;;;;;11.98;5.35;;;16.50;80.00;;;;;;5014796;28;20212;-73
2021/04/26 05:38:22;;;;;;;14.68;4.47;;;16.80;79.40;;;;;;5014603;28;20021;-73
2021/04/26 05:40:48;;;;;;;16.70;4.97;;;17.10;78.30;;;;;;5014699;28;20390;-74
2021/04/26 05:43:15;;;;;;;11.15;5.05;;;16.90;78.50;;;;;;5014496;28;20042;-73
2021/04/26 05:45:44;;;;;;;18.02;5.63;;;16.70;79.10;;;;;;5014969;28;20133;-73
2021/04/26 05:48:10;;;;;;;9.18;5.05;;;16.70;79.00;;;;;;5014705;28;20018;-73
2021/04/26 05:50:37;;;;;;;12.10;5.05;;;15.90;80.80;;;;;;5014300;28;20383;-72
2021/04/26 05:53:03;;;;;;;11.32;5.13;;;15.40;81.90;;;;;;5013543;28;20045;-73
2021/04/26 05:55:29;;;;;;;8.65;4.97;;;15.10;82.70;;;;;;5014371;28;20104;-72
2021/04/26 05:57:55;;;;;;;22.88;5.95;;;15.30;82.80;;;;;;5013325;28;20504;-73
2021/04/26 06:00:22;;;;;;;10.88;5.28;;;15.70;81.30;;;;;;5013799;28;20021;-73
2021/04/26 06:02:47;;;;;;;12.43;5.72;;;15.90;81.40;;;;;;4996388;28;20379;-73
2021/04/26 06:05:13;;;;;;;16.50;5.78;;;16.30;80.20;;;;;;5014871;28;20048;-72
2021/04/26 06:07:40;;;;;;;13.93;4.47;;;16.80;79.70;;;;;;5014831;28;20030;-73
2021/04/26 06:10:07;;;;;;;15.23;5.40;;;17.00;78.40;;;;;;5014466;28;20022;-73
2021/04/26 06:12:33;;;;;;;10.15;4.72;;;17.40;78.70;;;;;;5014262;28;20026;-73
2021/04/26 06:14:59;;;;;;;8.50;4.57;;;17.80;77.30;;;;;;5014609;28;20374;-73
2021/04/26 06:17:25;;;;;;;10.38;4.82;;;18.10;76.90;;;;;;5014458;28;20030;-73
2021/04/26 06:19:51;;;;;;;16.60;4.72;;;18.00;77.00;;;;;;5014623;28;20045;-73
2021/04/26 06:22:17;;;;;;;11.60;4.60;;;17.70;76.30;;;;;;5014271;28;20387;-73
2021/04/26 06:24:42;;;;;;;12.70;4.80;;;18.10;76.60;;;;;;5014344;28;20030;-73
2021/04/26 06:27:08;;;;;;;10.27;4.50;;;18.70;76.00;;;;;;5014484;28;20108;-73
2021/04/26 06:29:33;;;;;;;19.83;5.10;;;19.20;74.20;;;;;;5014327;28;20022;-73
2021/04/26 06:31:59;;;;;;;10.63;4.40;;;18.80;73.30;;;;;;4996797;28;20030;-73
2021/04/26 06:34:25;;;;;;;6.75;4.55;;;18.50;74.60;;;;;;5014100;28;20080;-73
2021/04/26 06:36:51;;;;;;;13.43;4.95;;;17.80;75.70;;;;;;5013471;28;20029;-72
2021/04/26 06:39:17;;;;;;;15.25;5.05;;;17.40;76.70;;;;;;5013487;28;20021;-73
2021/04/26 06:41:43;;;;;;;15.68;5.60;;;16.70;77.30;;;;;;5013212;28;20033;-72
2021/04/26 06:44:08;;;;;;;10.45;4.90;;;16.30;78.90;;;;;;5013691;28;20073;-72
2021/04/26 06:46:34;;;;;;;14.02;5.57;;;16.00;79.00;;;;;;5013817;28;20112;-72
2021/04/26 06:49:00;;;;;;;14.80;5.55;;;15.90;79.70;;;;;;5014051;28;20119;-73
2021/04/26 06:51:26;;;;;;;13.23;5.03;;;15.80;79.30;;;;;;5013546;28;20040;-73
2021/04/26 06:53:52;;;;;;;10.10;5.10;;;15.50;79.10;;;;;;5013346;28;20017;-73
2021/04/26 06:56:18;;;;;;;11.65;5.50;;;15.50;79.90;;;;;;5013212;28;20032;-73
2021/04/26 06:58:43;;;;;;;13.07;5.03;;;15.60;79.50;;;;;;5013508;28;20030;-73
2021/04/26 07:01:09;;;;;;;14.07;4.88;;;15.80;79.10;;;;;;5013019;28;20030;-73
2021/04/26 07:03:35;;;;;;;14.90;4.70;;;16.00;78.50;;;;;;5013042;28;20022;-72
2021/04/26 07:06:01;;;;;;;13.63;5.30;;;16.10;77.90;;;;;;5013137;28;20105;-72
2021/04/26 07:08:26;;;;;;;10.93;4.53;;;15.90;78.20;;;;;;5013012;28;20028;-73
2021/04/26 07:10:52;;;;;;;8.30;4.43;;;16.00;78.00;;;;;;5012735;28;20531;-73
2021/04/26 07:13:18;;;;;;;9.40;4.93;;;15.80;78.80;;;;;;5012986;28;20024;-72
2021/04/26 07:15:44;;;;;;;16.35;4.70;;;15.60;78.40;;;;;;5013145;28;20125;-73
2021/04/26 07:18:10;;;;;;;11.02;4.82;;;15.50;79.00;;;;;;5013056;28;20148;-76
2021/04/26 07:20:36;;;;;;;14.43;4.30;;;15.70;81.10;;;;;;5012790;28;20558;-75
2021/04/26 07:23:02;;;;;;;17.02;4.82;;;16.00;79.20;;;;;;5010850;28;20096;-79
2021/04/26 07:25:28;;;;;;;9.02;4.45;;;16.00;78.00;;;;;;5011407;28;20017;-76
2021/04/26 07:27:53;;;;;;;7.45;4.20;;;15.80;77.60;;;;;;5010418;28;20369;-79
2021/04/26 07:30:19;;;;;;;11.70;4.70;;;15.80;78.00;;;;;;5009755;28;20498;-77
2021/04/26 07:32:45;;;;;;;8.35;4.65;;;15.90;78.00;;;;;;5009757;28;20490;-78
2021/04/26 07:35:13;;;;;;;11.95;4.30;;;16.00;77.40;;;;;;5007787;28;20081;-77
2021/04/26 07:37:40;;;;;;;11.85;4.75;;;16.30;77.40;;;;;;5012375;28;20760;-77
2021/04/26 07:40:10;;;;;;;11.48;4.25;;;16.50;76.60;;;;;;5007133;28;20029;-79
2021/04/26 07:42:36;;;;;;;8.45;4.38;;;16.80;76.10;;;;;;5001477;28;20050;-77
2021/04/26 07:45:04;;;;;;;11.20;4.38;;;17.10;75.50;;;;;;5010557;28;20022;-75
2021/04/26 07:47:29;;;;;;;13.18;3.65;;;17.20;75.50;;;;;;5010046;28;20061;-76
2021/04/26 07:49:55;;;;;;;11.55;3.80;;;17.20;74.90;;;;;;5012863;28;20455;-76
2021/04/26 07:52:21;;;;;;;6.70;3.90;;;17.10;75.30;;;;;;5012061;28;20387;-81
2021/04/26 07:54:47;;;;;;;9.70;4.30;;;17.00;75.60;;;;;;4986151;28;20108;-77
2021/04/26 07:57:12;;;;;;;5.78;3.50;;;16.80;76.00;;;;;;5006949;28;20026;-77
2021/04/26 07:59:38;;;;;;;7.05;4.63;;;16.80;76.30;;;;;;5008813;28;20084;-79
2021/04/26 08:02:04;;;;;;;6.63;3.58;;;16.70;75.50;;;;;;5011096;28;20730;-79
2021/04/26 08:04:29;;;;;;;9.65;4.32;;;16.60;76.20;;;;;;5012691;28;20025;-79
2021/04/26 08:06:55;;;;;;;10.60;3.88;;;16.70;76.50;;;;;;5009502;28;20036;-79
2021/04/26 08:09:21;;;;;;;12.98;4.22;;;16.50;76.30;;;;;;5012456;28;20025;-76
2021/04/26 08:11:47;;;;;;;10.15;4.25;;;16.40;76.80;;;;;;5012109;28;20033;-75
2021/04/26 08:14:13;;;;;;;10.00;3.80;;;16.40;77.20;;;;;;5012076;28;20041;-76
2021/04/26 08:16:39;;;;;;;10.68;4.78;;;16.40;76.40;;;;;;5009633;28;20494;-77
2021/04/26 08:19:05;;;;;;;10.45;3.70;;;16.30;75.80;;;;;;5011979;28;20026;-78
2021/04/26 08:21:30;;;;;;;10.93;4.07;;;16.10;76.70;;;;;;5012092;28;20033;-80
2021/04/26 08:23:57;;;;;;;12.70;4.53;;;16.20;77.70;;;;;;5009303;28;20018;-76
2021/04/26 08:26:23;;;;;;;13.63;4.88;;;16.20;77.00;;;;;;5015679;28;20041;-76
2021/04/26 08:28:49;;;;;;;17.33;4.45;;;16.10;76.60;;;;;;5015602;28;20081;-76
2021/04/26 08:31:15;;;;;;;8.52;3.75;;;16.20;79.90;;;;;;5002381;28;20549;-75
2021/04/26 08:33:41;;;;;;;15.25;4.10;;;16.30;77.00;;;;;;4998893;28;20066;-75
2021/04/26 08:36:08;;;;;;;18.13;4.43;;;16.30;77.50;;;;;;4999085;28;20101;-75
2021/04/26 08:38:33;;;;;;;13.63;4.15;;;16.20;77.20;;;;;;5016348;28;20414;-75
2021/04/26 08:40:59;;;;;;;16.85;4.03;;;16.20;76.70;;;;;;5016158;28;20127;-74
2021/04/26 08:43:25;;;;;;;9.98;4.10;;;16.20;77.30;;;;;;5015991;28;20046;-74
2021/04/26 08:45:51;;;;;;;9.25;4.15;;;16.20;77.40;;;;;;5014468;28;20040;-74
2021/04/26 08:48:18;;;;;;;10.05;4.18;;;16.20;77.20;;;;;;5000839;28;20049;-74
2021/04/26 08:50:45;;;;;;;9.77;4.05;;;16.30;77.80;;;;;;5013024;28;20040;-78
2021/04/26 08:53:11;;;;;;;7.70;4.32;;;16.20;76.50;;;;;;5014772;28;20021;-74
2021/04/26 08:55:38;;;;;;;7.47;3.63;;;16.20;77.30;;;;;;5015421;28;20467;-75
2021/04/26 08:58:04;;;;;;;11.70;4.40;;;16.10;77.10;;;;;;5003586;28;20030;-74
2021/04/26 09:00:29;;;;;;;11.93;3.70;;;16.10;77.10;;;;;;5015393;28;20030;-75
2021/04/26 09:02:58;;;;;;;11.70;4.13;;;16.10;80.60;;;;;;5015197;28;20030;-74
2021/04/26 09:05:29;;;;;;;9.85;3.88;;;16.00;78.40;;;;;;5015325;28;20053;-80
2021/04/26 09:07:57;;;;;;;7.50;4.23;;;15.90;79.20;;;;;;5013624;28;20058;-79
2021/04/26 09:10:40;;;;;;;13.20;4.70;;;15.80;79.20;;;;;;5015337;28;20622;-75
2021/04/26 09:13:35;;;;;;;8.73;3.97;;;15.70;81.40;;;;;;5014655;28;20030;-85
2021/04/26 09:16:24;;;;;;;11.65;5.35;;;15.70;82.50;;;;;;5013613;28;20044;-73
2021/04/26 09:18:57;;;;;;;9.23;4.53;;;15.60;84.10;;;;;;5009205;28;20032;-78
2021/04/26 09:21:32;;;;;;;15.38;5.03;;;15.60;86.60;;;;;;4997035;28;20026;-75
2021/04/26 09:24:15;;;;;;;6.30;4.07;;;15.40;88.00;;;;;;5014493;28;20022;-73
2021/04/26 09:26:43;;;;;;;12.65;4.50;;;15.50;87.10;;;;;;5013046;28;20112;-75
2021/04/26 09:29:19;;;;;;;8.38;4.55;;;15.40;87.50;;;;;;5013730;28;20041;-76
2021/04/26 09:32:01;;;;;;;20.27;4.57;;;15.30;89.00;;;;;;4983734;28;20072;-73
2021/04/26 09:34:31;;;;;;;8.27;4.07;;;15.30;90.10;;;;;;5013559;28;20072;-75
2021/04/26 09:37:27;;;;;;;16.38;4.60;;;15.40;90.70;;;;;;5012362;28;20040;-73
2021/04/26 09:40:07;;;;;;;7.55;3.83;;;15.40;89.20;;;;;;4977180;28;20025;-73
2021/04/26 09:42:43;;;;;;;12.10;4.78;;;15.30;89.00;;;;;;5010030;28;20069;-74
2021/04/26 09:45:21;;;;;;;26.67;4.53;;;15.30;89.70;;;;;;5012964;28;20029;-77
2021/04/26 09:47:48;;;;;;;7.65;4.05;;;15.40;90.70;;;;;;5011932;28;20022;-74
2021/04/26 09:50:14;;;;;;;8.32;4.15;;;15.40;89.60;;;;;;5012698;28;20014;-74
2021/04/26 09:52:40;;;;;;;8.82;4.18;;;15.40;90.20;;;;;;5012622;28;20032;-73
2021/04/26 09:55:26;;;;;;;10.57;4.78;;;15.40;89.40;;;;;;5013231;28;20018;-73
2021/04/26 09:57:52;;;;;;;8.82;4.20;;;15.50;90.10;;;;;;5013196;28;20033;-77
2021/04/26 10:00:18;;;;;;;18.40;4.70;;;15.50;89.50;;;;;;5013240;28;20022;-75
2021/04/26 10:02:44;;;;;;;20.08;4.97;;;15.60;89.30;;;;;;4991836;28;20030;-79
2021/04/26 10:05:11;;;;;;;23.95;5.20;;;15.80;89.30;;;;;;4994844;28;20037;-84
2021/04/26 10:07:38;;;;;;;11.60;3.88;;;15.90;88.30;;;;;;4994958;28;20053;-77
2021/04/26 10:10:04;;;;;;;13.85;4.13;;;15.90;88.20;;;;;;5012674;28;20025;-78
2021/04/26 10:12:30;;;;;;;8.23;4.68;;;16.00;89.00;;;;;;5013081;28;20495;-75
2021/04/26 10:14:56;;;;;;;11.70;4.15;;;16.00;89.00;;;;;;5012836;28;20133;-78
2021/04/26 10:17:22;;;;;;;11.10;4.80;;;15.90;90.10;;;;;;5012794;28;20088;-77
2021/04/26 10:19:50;;;;;;;11.48;4.72;;;15.90;88.60;;;;;;5013073;28;20034;-78
2021/04/26 10:22:36;;;;;;;5.85;4.25;;;15.90;88.50;;;;;;5012944;28;20049;-79
2021/04/26 10:25:02;;;;;;;12.95;4.40;;;15.90;88.60;;;;;;5010322;28;20045;-76
2021/04/26 10:27:30;;;;;;;5.40;3.85;;;16.00;87.60;;;;;;5007173;28;20450;-76
2021/04/26 10:30:06;;;;;;;8.05;4.40;;;16.00;87.60;;;;;;5012999;28;20017;-80
2021/04/26 10:32:59;;;;;;;8.00;4.03;;;16.20;88.00;;;;;;5013610;28;20025;-78
2021/04/26 10:35:42;;;;;;;9.57;4.22;;;16.30;87.00;;;;;;4988170;28;20398;-80
2021/04/26 10:38:36;;;;;;;9.13;4.45;;;16.30;87.20;;;;;;5008754;28;20073;-79
2021/04/26 10:41:04;;;;;;;9.82;4.40;;;16.40;86.20;;;;;;5007092;28;20022;-76
2021/04/26 10:43:31;;;;;;;7.22;4.13;;;16.40;86.30;;;;;;5010837;28;20502;-77
2021/04/26 10:46:15;;;;;;;7.90;3.65;;;16.30;86.80;;;;;;5010271;28;20033;-76
2021/04/26 10:49:20;;;;;;;8.38;4.50;;;16.30;87.00;;;;;;5011608;28;20026;-77
2021/04/26 10:51:45;;;;;;;12.20;4.20;;;16.40;87.50;;;;;;5011526;28;20092;-79
2021/04/26 10:54:11;;;;;;;11.50;4.55;;;16.40;86.60;;;;;;5011921;28;20151;-76
2021/04/26 10:56:37;;;;;;;9.30;4.20;;;16.50;87.90;;;;;;5011623;28;20040;-74
2021/04/26 10:59:18;;;;;;;8.50;4.25;;;16.60;86.70;;;;;;5011716;28;20462;-76
2021/04/26 11:01:49;;;;;;;14.60;4.88;;;16.70;87.10;;;;;;5011176;28;20038;-74
2021/04/26 11:04:15;;;;;;;11.13;4.00;;;16.80;86.80;;;;;;5012577;28;20033;-75
2021/04/26 11:07:13;;;;;;;8.25;3.88;;;16.90;85.30;;;;;;5011458;28;20140;-77
2021/04/26 11:09:41;;;;;;;6.22;4.13;;;17.20;85.20;;;;;;5010182;28;20018;-77
2021/04/26 11:12:32;;;;;;;7.10;4.50;;;17.30;84.80;;;;;;5008826;28;20097;-75
2021/04/26 11:15:19;;;;;;;5.90;3.57;;;17.50;85.20;;;;;;5008183;28;20026;-75
2021/04/26 11:17:46;;;;;;;11.70;4.78;;;17.60;84.00;;;;;;4997396;28;20048;-73
2021/04/26 11:20:18;;;;;;;13.07;4.65;;;17.70;83.40;;;;;;4998539;28;20059;-74
2021/04/26 11:22:44;;;;;;;12.82;4.05;;;17.80;83.80;;;;;;4987062;28;20034;-74
2021/04/26 11:25:30;;;;;;;11.52;4.35;;;18.00;83.40;;;;;;4994889;28;20019;-74
2021/04/26 11:27:57;;;;;;;10.93;4.38;;;18.00;83.60;;;;;;4997964;28;20022;-75
2021/04/26 11:30:26;;;;;;;14.27;4.75;;;17.90;82.40;;;;;;4995538;28;20028;-74
2021/04/26 11:33:02;;;;;;;16.30;5.25;;;17.90;82.70;;;;;;5004531;28;20441;-77
2021/04/26 11:35:29;;;;;;;13.15;4.45;;;18.10;83.50;;;;;;4999326;28;20499;-75
2021/04/26 11:37:55;;;;;;;14.43;4.70;;;18.10;82.10;;;;;;4993696;28;20023;-75
2021/04/26 11:40:25;;;;;;;16.35;5.35;;;18.20;82.80;;;;;;4994172;28;20022;-75
2021/04/26 11:42:51;;;;;;;21.75;5.53;;;18.30;82.50;;;;;;4994542;28;20053;-75
2021/04/26 11:45:21;;;;;;;8.80;5.13;;;18.30;82.50;;;;;;4998103;28;20399;-75
2021/04/26 11:47:50;;;;;;;10.60;6.10;;;18.30;82.70;;;;;;4998165;28;20033;-76
2021/04/26 11:50:16;;;;;;;21.85;7.10;;;18.20;83.30;;;;;;4993860;28;20014;-75
2021/04/26 11:52:42;;;;;;;15.52;5.90;;;18.10;82.80;;;;;;5002828;28;20065;-78
2021/04/26 11:55:10;;;;;;;13.45;6.05;;;18.00;83.60;;;;;;4977757;28;20448;-77
2021/04/26 11:57:47;;;;;;;16.42;6.50;;;18.00;84.00;;;;;;4994291;28;20026;-76
2021/04/26 12:00:15;;;;;;;14.55;6.43;;;17.90;83.80;;;;;;4994565;28;20486;-75
2021/04/26 12:02:44;;;;;;;14.80;5.72;;;17.90;84.10;;;;;;4995981;28;20045;-77
2021/04/26 12:05:15;;;;;;;25.92;6.15;;;17.80;84.20;;;;;;4994489;28;20418;-73
2021/04/26 12:07:42;;;;;;;10.30;4.97;;;17.80;85.90;;;;;;4998493;28;20065;-74
2021/04/26 12:10:12;;;;;;;15.20;6.40;;;17.90;84.60;;;;;;5005468;28;20080;-74
2021/04/26 12:12:38;;;;;;;11.40;4.72;;;18.00;86.80;;;;;;5010413;28;20018;-72
2021/04/26 12:15:09;;;;;;;11.52;4.97;;;18.00;85.60;;;;;;5003417;28;20074;-79
2021/04/26 12:17:39;;;;;;;12.15;4.80;;;18.00;89.40;;;;;;5011771;28;20544;-75
2021/04/26 12:20:17;;;;;;;23.92;4.97;;;18.10;86.50;;;;;;5008134;28;20030;-77
2021/04/26 12:22:44;;;;;;;8.73;4.40;;;18.00;87.00;;;;;;4978302;28;20033;-76
2021/04/26 12:25:11;;;;;;;6.85;4.45;;;18.10;86.90;;;;;;4995675;28;20018;-76
2021/04/26 12:27:37;;;;;;;13.32;4.40;;;18.10;85.00;;;;;;5000799;28;20125;-77
2021/04/26 12:30:14;;;;;;;8.50;4.28;;;18.20;86.40;;;;;;5007848;28;20044;-77
2021/04/26 12:32:40;;;;;;;16.23;4.78;;;18.20;85.60;;;;;;5002573;28;20022;-76
2021/04/26 12:35:08;;;;;;;9.70;4.07;;;18.20;85.00;;;;;;4993600;28;20026;-79
2021/04/26 12:37:36;;;;;;;9.00;4.18;;;18.30;85.40;;;;;;5001822;28;20025;-79
2021/04/26 12:40:14;;;;;;;16.35;5.05;;;18.30;85.30;;;;;;5004538;28;20032;-75
2021/04/26 12:42:41;;;;;;;10.20;4.45;;;18.20;85.20;;;;;;5010056;28;20057;-76
2021/04/26 12:45:10;;;;;;;8.90;4.22;;;18.30;85.30;;;;;;5009638;28;20056;-76